Terminal Aerodrome Forecast
Issued by NWS Cleveland, OH

Home | Current Version | Previous Version | Text Only | Print | Product List | Glossary Off
Versions: 1 2 3 4 5 6 7 8 9 10 11 12 13 14 15 16 17 18 19 20 21 22 23 24

000
FTUS41 KCLE 302339
TAFCLE
TAF
KCLE 302339Z 3100/0106 20005KT P6SM SCT050 BKN100
      TEMPO 3110/3112 5SM BR
     FM311400 22005KT P6SM SCT030
     FM311800 29008KT P6SM SCT045
     FM010100 19003KT P6SM FEW050=

USA.gov is the U.S. government's official web portal to all federal, state and local government web resources and services.